Time;durP1;ratioP1;P1;durP2;ratioP2;P2;SDS_P1;SDS_P2;PMS_P1;PMS_P2;Temp;Humidity;BMP_temperature;BMP_pressure;BME280_temperature;BME280_humidity;BME280_pressure;Samples;Min_cycle;Max_cycle;Signal;HPM_P1;HPM_P2
2024/01/15 00:00:23;;;;;;;4.82;1.33;;;;;;;5.91;62.80;100357.72;5009623;28;97665;-69
2024/01/15 00:02:49;;;;;;;7.22;2.08;;;;;;;5.87;62.71;100350.84;5000938;28;97328;-69
2024/01/15 00:05:16;;;;;;;5.55;1.42;;;;;;;5.84;62.71;100349.22;4988191;28;97493;-68
2024/01/15 00:07:43;;;;;;;4.82;1.50;;;;;;;5.80;62.69;100353.00;4987045;28;97430;-69
2024/01/15 00:10:10;;;;;;;5.13;1.27;;;;;;;5.78;62.71;100346.91;5006989;28;98023;-69
2024/01/15 00:12:39;;;;;;;8.52;1.73;;;;;;;5.76;62.79;100346.16;5002426;28;97130;-69
2024/01/15 00:15:06;;;;;;;7.03;1.63;;;;;;;5.74;62.75;100340.91;5010726;28;97194;-68
2024/01/15 00:17:33;;;;;;;9.27;1.83;;;;;;;5.73;62.72;100331.19;4999456;28;97584;-69
2024/01/15 00:20:00;;;;;;;4.72;1.30;;;;;;;5.71;62.74;100338.44;5007020;28;97657;-69
2024/01/15 00:22:29;;;;;;;5.25;1.48;;;;;;;5.68;62.56;100343.94;5005655;28;98305;-69
2024/01/15 00:24:56;;;;;;;3.00;1.52;;;;;;;5.65;62.69;100341.44;4996132;28;97979;-69
2024/01/15 00:27:23;;;;;;;4.60;1.40;;;;;;;5.63;62.68;100342.50;4995999;28;97719;-69
2024/01/15 00:29:51;;;;;;;5.82;1.90;;;;;;;5.59;62.55;100336.47;5007473;28;97499;-69
2024/01/15 00:32:18;;;;;;;6.85;1.35;;;;;;;5.57;62.65;100334.84;5002829;28;96964;-69
2024/01/15 00:34:45;;;;;;;6.63;1.63;;;;;;;5.54;62.78;100335.03;4995188;28;97117;-69
2024/01/15 00:37:12;;;;;;;5.90;1.55;;;;;;;5.53;62.65;100322.66;4999761;28;98363;-68
2024/01/15 00:39:41;;;;;;;5.20;1.33;;;;;;;5.50;62.76;100331.69;5001767;28;97625;-69
2024/01/15 00:42:08;;;;;;;8.02;1.85;;;;;;;5.48;62.72;100320.28;4992405;28;97242;-69
2024/01/15 00:44:34;;;;;;;7.90;1.45;;;;;;;5.47;62.66;100318.56;5004951;28;97417;-69
2024/01/15 00:47:01;;;;;;;7.68;1.63;;;;;;;5.47;62.61;100310.56;5003053;28;97572;-69
2024/01/15 00:49:28;;;;;;;6.00;1.45;;;;;;;5.47;62.46;100312.38;5008373;28;97855;-69
2024/01/15 00:51:55;;;;;;;8.23;1.80;;;;;;;5.45;62.81;100309.81;5017784;28;96877;-69
2024/01/15 00:54:22;;;;;;;5.90;1.65;;;;;;;5.44;62.72;100302.75;5005508;28;97327;-69
2024/01/15 00:56:48;;;;;;;6.47;1.88;;;;;;;5.45;62.81;100296.50;5008406;28;97686;-69
2024/01/15 00:59:15;;;;;;;8.85;1.50;;;;;;;5.44;62.85;100294.78;5005316;28;100022;-69
2024/01/15 01:01:42;;;;;;;9.75;2.00;;;;;;;5.42;62.60;100286.03;5009495;28;97598;-68
2024/01/15 01:04:10;;;;;;;5.57;1.70;;;;;;;5.41;62.71;100294.94;5017161;27;97130;-68
2024/01/15 01:06:38;;;;;;;8.85;2.05;;;;;;;5.40;62.65;100283.44;5018151;27;98260;-69
2024/01/15 01:09:05;;;;;;;5.90;1.88;;;;;;;5.40;62.70;100287.91;5008015;27;97424;-69
2024/01/15 01:11:32;;;;;;;7.80;1.70;;;;;;;5.39;62.62;100286.19;4993378;28;96835;-68
2024/01/15 01:13:58;;;;;;;4.10;1.60;;;;;;;5.40;62.70;100286.09;5000362;27;97358;-69
2024/01/15 01:16:25;;;;;;;7.15;1.92;;;;;;;5.39;62.67;100280.88;5002032;28;97937;-69
2024/01/15 01:18:52;;;;;;;7.10;1.67;;;;;;;5.38;62.60;100279.16;5000569;28;99865;-69
2024/01/15 01:21:19;;;;;;;8.27;2.05;;;;;;;5.37;62.61;100288.94;5009782;28;97576;-68
2024/01/15 01:23:45;;;;;;;10.02;2.47;;;;;;;5.38;62.67;100279.16;4996234;28;97953;-69
2024/01/15 01:26:16;;;;;;;9.05;1.80;;;;;;;5.39;62.75;100284.41;5006072;28;97372;-68
2024/01/15 01:28:43;;;;;;;9.77;2.20;;;;;;;5.42;62.76;100278.03;5006790;28;97550;-68
2024/01/15 01:31:10;;;;;;;10.05;2.00;;;;;;;5.45;62.69;100290.31;5014456;28;96918;-68
2024/01/15 01:33:40;;;;;;;5.97;2.08;;;;;;;5.46;62.58;100289.34;5001926;28;97438;-69
2024/01/15 01:36:10;;;;;;;9.23;2.08;;;;;;;5.46;62.67;100292.03;5011900;28;97559;-68
2024/01/15 01:38:37;;;;;;;6.47;1.85;;;;;;;5.45;62.70;100279.66;4995813;28;98081;-69
2024/01/15 01:41:04;;;;;;;10.25;1.77;;;;;;;5.44;62.63;100286.78;5012524;28;97181;-68
2024/01/15 01:43:31;;;;;;;7.93;2.08;;;;;;;5.43;62.57;100280.59;5011790;27;96972;-69
2024/01/15 01:46:00;;;;;;;9.25;2.20;;;;;;;5.43;62.59;100282.41;4991119;28;97565;-68
2024/01/15 01:48:27;;;;;;;7.78;2.67;;;;;;;5.42;62.70;100289.53;5028374;27;97379;-68
2024/01/15 01:50:56;;;;;;;10.23;2.45;;;;;;;5.41;62.47;100285.16;5008824;28;97338;-68
2024/01/15 01:53:24;;;;;;;12.23;2.78;;;;;;;5.41;62.63;100286.97;5014593;27;97099;-69
2024/01/15 01:55:51;;;;;;;11.38;3.10;;;;;;;5.41;62.53;100287.81;5016388;28;98153;-69
2024/01/15 01:58:19;;;;;;;9.90;2.03;;;;;;;5.41;62.67;100286.97;5016715;28;97604;-69
2024/01/15 02:00:47;;;;;;;8.05;2.15;;;;;;;5.42;62.51;100278.88;5012913;27;97101;-69
2024/01/15 02:03:15;;;;;;;7.75;2.13;;;;;;;5.41;62.42;100282.50;5008199;27;97113;-69
2024/01/15 02:05:43;;;;;;;10.90;2.50;;;;;;;5.41;62.49;100284.31;5007453;28;97527;-69
2024/01/15 02:08:09;;;;;;;12.05;2.70;;;;;;;5.39;62.43;100268.41;5000376;28;98216;-69
2024/01/15 02:10:37;;;;;;;7.10;2.08;;;;;;;5.39;62.30;100279.06;4999816;28;97283;-69
2024/01/15 02:13:03;;;;;;;8.77;2.47;;;;;;;5.40;62.26;100278.13;5012716;28;97228;-69
2024/01/15 02:15:30;;;;;;;15.68;3.28;;;;;;;5.38;62.25;100280.00;4998489;28;97600;-69
2024/01/15 02:18:05;;;;;;;11.68;2.33;;;;;;;5.36;62.23;100283.72;5005582;28;99785;-68
2024/01/15 02:20:32;;;;;;;10.15;2.55;;;;;;;5.35;62.13;100284.66;5001345;27;96877;-69
2024/01/15 02:23:10;;;;;;;12.40;2.10;;;;;;;5.34;62.20;100282.94;4999961;28;97368;-68
2024/01/15 02:25:39;;;;;;;10.77;2.53;;;;;;;5.33;62.10;100286.56;5007925;28;97410;-69
2024/01/15 02:28:09;;;;;;;10.68;2.28;;;;;;;5.32;62.13;100288.34;4998781;28;97123;-68
2024/01/15 02:30:39;;;;;;;7.40;2.25;;;;;;;5.31;62.20;100281.31;4998457;28;96888;-68
2024/01/15 02:33:07;;;;;;;20.27;2.80;;;;;;;5.31;62.14;100276.00;5007987;27;97264;-69
2024/01/15 02:35:37;;;;;;;10.45;2.53;;;;;;;5.32;62.15;100277.72;5007401;28;97754;-68
2024/01/15 02:38:05;;;;;;;5.60;2.42;;;;;;;5.33;62.17;100276.75;5001296;28;97792;-68
2024/01/15 02:40:34;;;;;;;12.15;2.58;;;;;;;5.34;62.32;100286.47;5003872;28;98047;-68
2024/01/15 02:43:01;;;;;;;9.73;2.55;;;;;;;5.36;62.23;100283.72;4992331;28;97075;-68
2024/01/15 02:45:28;;;;;;;7.75;2.50;;;;;;;5.39;62.12;100294.19;4991038;28;97585;-68
2024/01/15 02:47:55;;;;;;;11.73;2.90;;;;;;;5.41;62.23;100289.63;4993089;28;97922;-68
2024/01/15 02:50:21;;;;;;;10.30;3.10;;;;;;;5.41;62.17;100290.47;5016984;28;97084;-69
2024/01/15 02:52:48;;;;;;;18.63;3.78;;;;;;;5.44;62.28;100292.09;5024296;27;97276;-68
2024/01/15 02:55:15;;;;;;;9.25;2.45;;;;;;;5.48;62.28;100287.47;5009004;28;97625;-68
2024/01/15 02:57:41;;;;;;;9.95;1.80;;;;;;;5.49;62.20;100295.34;5002862;28;97451;-68
2024/01/15 03:00:08;;;;;;;11.48;2.40;;;;;;;5.49;62.10;100295.34;5007916;28;96935;-69
2024/01/15 03:02:39;;;;;;;10.02;1.73;;;;;;;5.49;62.10;100292.69;5008795;28;97637;-68
2024/01/15 03:05:07;;;;;;;6.38;2.00;;;;;;;5.49;62.08;100303.34;5005464;28;97366;-69
2024/01/15 03:07:34;;;;;;;9.20;2.10;;;;;;;5.48;61.92;100298.13;5004286;28;98387;-69
2024/01/15 03:10:01;;;;;;;6.97;2.25;;;;;;;5.49;62.00;100283.84;5004747;28;97471;-68
2024/01/15 03:12:28;;;;;;;9.30;2.08;;;;;;;5.50;61.95;100286.41;5006768;28;97989;-69
2024/01/15 03:14:54;;;;;;;8.30;2.00;;;;;;;5.52;61.95;100281.84;5006443;28;98034;-68
2024/01/15 03:17:21;;;;;;;10.75;2.67;;;;;;;5.54;61.96;100279.97;5004569;28;98020;-68
2024/01/15 03:19:49;;;;;;;8.55;2.75;;;;;;;5.55;61.88;100278.16;5009457;28;96725;-68
2024/01/15 03:22:17;;;;;;;10.93;2.50;;;;;;;5.54;61.87;100274.63;5003408;28;97772;-68
2024/01/15 03:24:44;;;;;;;7.68;1.95;;;;;;;5.54;61.80;100273.78;4997981;28;98035;-68
2024/01/15 03:27:12;;;;;;;8.63;2.08;;;;;;;5.51;61.82;100272.16;4995824;28;97666;-68
2024/01/15 03:29:39;;;;;;;10.80;2.67;;;;;;;5.51;61.78;100272.16;5002916;28;97532;-69
2024/01/15 03:32:06;;;;;;;10.23;2.67;;;;;;;5.50;61.73;100264.25;5002931;28;97107;-68
2024/01/15 03:34:33;;;;;;;8.73;2.13;;;;;;;5.49;61.77;100266.06;4988980;28;99731;-69
2024/01/15 03:37:00;;;;;;;10.73;2.13;;;;;;;5.47;61.67;100262.63;5001117;28;97953;-68
2024/01/15 03:39:27;;;;;;;7.38;2.08;;;;;;;5.46;61.78;100258.25;4998112;28;97002;-68
2024/01/15 03:41:54;;;;;;;7.47;2.22;;;;;;;5.47;61.95;100253.78;5002753;28;97554;-68
2024/01/15 03:44:20;;;;;;;8.48;2.15;;;;;;;5.45;61.76;100258.34;4995933;28;97707;-68
2024/01/15 03:46:47;;;;;;;8.88;2.38;;;;;;;5.44;61.83;100252.16;5002312;28;97569;-69
2024/01/15 03:49:14;;;;;;;12.27;2.30;;;;;;;5.44;61.76;100254.81;5000661;28;96935;-68
2024/01/15 03:51:41;;;;;;;8.77;2.03;;;;;;;5.43;62.00;100243.31;5008974;28;97897;-68
2024/01/15 03:54:08;;;;;;;10.73;2.10;;;;;;;5.41;61.79;100242.56;5017719;28;97381;-68
2024/01/15 03:56:35;;;;;;;11.95;2.30;;;;;;;5.41;61.82;100249.69;5004521;28;97941;-69
2024/01/15 03:59:02;;;;;;;6.68;1.98;;;;;;;5.40;61.85;100245.31;5011835;28;98073;-68
2024/01/15 04:01:29;;;;;;;10.35;2.17;;;;;;;5.40;61.80;100253.28;5015437;27;96814;-68
2024/01/15 04:03:56;;;;;;;8.82;2.17;;;;;;;5.40;62.00;100246.16;5003225;27;97529;-68
2024/01/15 04:06:22;;;;;;;10.77;2.53;;;;;;;5.41;61.82;100247.88;5011641;28;97819;-68
2024/01/15 04:08:49;;;;;;;12.73;2.58;;;;;;;5.43;61.81;100250.44;5005982;27;96932;-68
2024/01/15 04:11:16;;;;;;;10.93;2.50;;;;;;;5.43;61.90;100243.31;5000117;28;97554;-68
2024/01/15 04:13:43;;;;;;;7.32;1.85;;;;;;;5.45;61.99;100247.69;5001523;28;97550;-68
2024/01/15 04:16:09;;;;;;;8.38;1.55;;;;;;;5.45;62.05;100248.56;5004757;28;97840;-68
2024/01/15 04:18:37;;;;;;;6.10;1.73;;;;;;;5.48;61.87;100242.19;5002190;28;97490;-68
2024/01/15 04:21:06;;;;;;;5.63;1.92;;;;;;;5.48;61.96;100251.03;4997072;28;96882;-68
2024/01/15 04:23:33;;;;;;;9.40;2.15;;;;;;;5.51;61.94;100252.66;5003836;28;97840;-68
2024/01/15 04:25:59;;;;;;;11.13;2.60;;;;;;;5.52;61.98;100252.56;5002498;28;97634;-68
2024/01/15 04:28:26;;;;;;;7.95;2.20;;;;;;;5.53;61.82;100240.97;5004957;28;96915;-68
2024/01/15 04:30:53;;;;;;;10.85;1.90;;;;;;;5.52;61.96;100235.72;5024917;27;97856;-68
2024/01/15 04:33:19;;;;;;;9.95;2.20;;;;;;;5.51;61.88;100242.84;5005502;27;97665;-68
2024/01/15 04:35:46;;;;;;;8.13;1.98;;;;;;;5.50;61.90;100238.47;5004192;28;98124;-69
2024/01/15 04:38:13;;;;;;;8.57;2.08;;;;;;;5.51;62.02;100242.00;4996299;28;96808;-68
2024/01/15 04:40:40;;;;;;;7.75;2.13;;;;;;;5.51;61.92;100232.22;5001730;28;97879;-68
2024/01/15 04:43:07;;;;;;;4.93;1.92;;;;;;;5.55;62.00;100220.41;4999514;27;97459;-68
2024/01/15 04:45:34;;;;;;;8.13;2.65;;;;;;;5.57;61.88;100218.53;5001003;28;98059;-69
2024/01/15 04:48:01;;;;;;;6.25;1.80;;;;;;;5.57;61.83;100221.19;5010261;28;97486;-68
2024/01/15 04:50:28;;;;;;;5.93;2.03;;;;;;;5.56;61.78;100213.28;5020122;28;97899;-68
2024/01/15 04:52:55;;;;;;;11.18;2.20;;;;;;;5.55;61.79;100216.91;5016510;28;97572;-68
2024/01/15 04:55:21;;;;;;;7.53;2.30;;;;;;;5.53;61.84;100210.81;4990523;28;100069;-68
2024/01/15 04:57:48;;;;;;;6.25;2.30;;;;;;;5.51;61.78;100207.38;5006275;28;97640;-69
2024/01/15 05:00:15;;;;;;;11.23;2.67;;;;;;;5.49;61.77;100217.28;5016168;28;97360;-68
2024/01/15 05:02:42;;;;;;;8.30;2.30;;;;;;;5.46;61.70;100204.13;5013822;28;97591;-68
2024/01/15 05:05:09;;;;;;;11.27;2.22;;;;;;;5.43;61.83;100192.72;5017937;27;98447;-68
2024/01/15 05:07:35;;;;;;;6.00;2.15;;;;;;;5.41;61.61;100205.28;5008427;27;96934;-68
2024/01/15 05:10:03;;;;;;;5.97;1.88;;;;;;;5.38;61.93;100194.81;5012501;28;97437;-69
2024/01/15 05:12:30;;;;;;;6.00;1.98;;;;;;;5.34;61.82;100195.94;4996564;28;97412;-68
2024/01/15 05:14:56;;;;;;;5.18;1.80;;;;;;;5.32;61.67;100186.31;5005656;28;97662;-69
2024/01/15 05:17:23;;;;;;;4.97;1.60;;;;;;;5.31;61.79;100187.28;4999503;28;97014;-69
2024/01/15 05:19:50;;;;;;;6.93;1.75;;;;;;;5.31;61.89;100187.28;5005984;28;97158;-69
2024/01/15 05:22:17;;;;;;;7.50;1.77;;;;;;;5.32;61.94;100184.53;4988818;28;97586;-68
2024/01/15 05:24:43;;;;;;;4.07;1.58;;;;;;;5.33;62.14;100186.25;5010686;28;97631;-68
2024/01/15 05:27:10;;;;;;;7.05;1.83;;;;;;;5.32;61.97;100187.19;5006019;28;96946;-69
2024/01/15 05:29:37;;;;;;;6.10;1.15;;;;;;;5.31;61.97;100189.94;5015915;28;97028;-68
2024/01/15 05:32:04;;;;;;;4.82;1.85;;;;;;;5.31;61.82;100187.28;4998751;28;97625;-68
2024/01/15 05:34:30;;;;;;;6.30;1.60;;;;;;;5.30;61.99;100188.22;4997023;28;98452;-68
2024/01/15 05:36:57;;;;;;;6.15;1.50;;;;;;;5.31;61.97;100198.78;4996785;28;96936;-68
2024/01/15 05:39:24;;;;;;;8.20;2.15;;;;;;;5.31;61.95;100185.47;5005959;28;97540;-68
2024/01/15 05:41:51;;;;;;;6.60;2.00;;;;;;;5.31;61.92;100196.13;4996118;28;97381;-68
2024/01/15 05:44:18;;;;;;;9.02;2.08;;;;;;;5.32;62.17;100194.31;4998455;28;98176;-69
2024/01/15 05:46:45;;;;;;;3.88;1.35;;;;;;;5.31;62.20;100185.47;4996173;28;96846;-69
2024/01/15 05:49:12;;;;;;;8.20;1.20;;;;;;;5.31;62.17;100187.28;5000301;28;97489;-68
2024/01/15 05:51:38;;;;;;;3.65;1.30;;;;;;;5.32;62.13;100191.66;5001460;28;97539;-68
2024/01/15 05:54:06;;;;;;;2.65;1.10;;;;;;;5.32;62.12;100181.00;5009724;28;97509;-68
2024/01/15 05:56:33;;;;;;;6.07;1.27;;;;;;;5.32;62.13;100183.66;4999187;28;97702;-68
2024/01/15 05:59:02;;;;;;;4.20;1.15;;;;;;;5.32;62.12;100183.66;5008217;28;96793;-68
2024/01/15 06:01:28;;;;;;;3.22;0.95;;;;;;;5.31;62.13;100182.81;5004839;28;97615;-68
2024/01/15 06:03:55;;;;;;;3.42;1.10;;;;;;;5.30;62.05;100182.91;5006845;28;97529;-69
2024/01/15 06:06:22;;;;;;;5.55;1.10;;;;;;;5.28;62.25;100193.66;5006772;28;98003;-68
2024/01/15 06:08:48;;;;;;;4.20;1.25;;;;;;;5.27;62.12;100197.25;5001725;27;97128;-68
2024/01/15 06:11:15;;;;;;;3.05;1.35;;;;;;;5.28;62.20;100188.31;5008043;28;97863;-68
2024/01/15 06:13:42;;;;;;;3.85;1.15;;;;;;;5.29;62.19;100189.19;5010488;28;97861;-68
2024/01/15 06:16:15;;;;;;;2.58;1.38;;;;;;;5.29;62.40;100199.81;5010942;28;97287;-69
2024/01/15 06:18:41;;;;;;;4.70;1.60;;;;;;;5.30;62.30;100194.41;4999401;28;97312;-68
2024/01/15 06:21:10;;;;;;;2.45;1.55;;;;;;;5.31;62.29;100189.94;4996582;28;99808;-69
2024/01/15 06:23:37;;;;;;;4.43;1.75;;;;;;;5.31;62.41;100181.97;4996071;28;97507;-69
2024/01/15 06:26:04;;;;;;;5.78;2.55;;;;;;;5.31;62.36;100182.81;5000736;28;97209;-68
2024/01/15 06:28:32;;;;;;;6.53;3.00;;;;;;;5.33;62.36;100185.38;4999914;28;97496;-68
2024/01/15 06:30:58;;;;;;;4.72;3.80;;;;;;;5.35;62.43;100188.81;5011621;28;98096;-68
2024/01/15 06:33:25;;;;;;;5.97;4.10;;;;;;;5.37;62.29;100189.56;5009106;28;97488;-68
2024/01/15 06:35:52;;;;;;;5.50;4.07;;;;;;;5.36;62.45;100190.53;5018876;28;97129;-68
2024/01/15 06:38:19;;;;;;;6.43;4.65;;;;;;;5.36;62.20;100195.84;5009366;28;97310;-68
2024/01/15 06:40:48;;;;;;;6.78;4.20;;;;;;;5.33;62.26;100201.34;5010855;28;97875;-68
2024/01/15 06:43:18;;;;;;;7.95;4.57;;;;;;;5.31;62.25;100203.25;5002767;28;100167;-69
2024/01/15 06:45:45;;;;;;;8.57;5.45;;;;;;;5.28;62.31;100203.44;5007352;28;96791;-69
2024/01/15 06:48:16;;;;;;;6.10;4.97;;;;;;;5.25;62.19;100187.66;5005816;28;96861;-70
2024/01/15 06:50:43;;;;;;;6.35;4.65;;;;;;;5.23;62.20;100189.53;5006061;28;98122;-70
2024/01/15 06:53:10;;;;;;;6.70;4.45;;;;;;;5.20;62.34;100174.59;5013132;28;97911;-70
2024/01/15 06:55:38;;;;;;;5.28;3.65;;;;;;;5.18;62.10;100170.28;5011963;27;97550;-71
2024/01/15 06:58:05;;;;;;;5.55;3.90;;;;;;;5.16;62.09;100174.84;5008596;28;97085;-70
2024/01/15 07:00:32;;;;;;;3.75;3.05;;;;;;;5.14;62.14;100182.94;4994612;28;98423;-71
2024/01/15 07:02:59;;;;;;;3.45;3.15;;;;;;;5.14;62.07;100190.06;5003333;28;97573;-71
2024/01/15 07:05:25;;;;;;;3.47;2.88;;;;;;;5.14;62.27;100184.72;5006081;27;97212;-71
2024/01/15 07:07:52;;;;;;;3.63;3.20;;;;;;;5.14;62.31;100187.41;4996867;28;97241;-71
2024/01/15 07:10:19;;;;;;;4.00;3.60;;;;;;;5.14;62.29;100185.59;5004032;27;97198;-71
2024/01/15 07:12:46;;;;;;;3.70;3.40;;;;;;;5.15;62.23;100186.44;5001945;28;98101;-71
2024/01/15 07:15:14;;;;;;;3.97;3.60;;;;;;;5.15;62.18;100176.66;5002258;28;97369;-71
2024/01/15 07:17:41;;;;;;;3.88;3.47;;;;;;;5.13;62.24;100170.56;5008303;28;97247;-72
2024/01/15 07:20:08;;;;;;;5.00;3.10;;;;;;;5.13;62.41;100170.56;4988255;28;100052;-72
2024/01/15 07:22:35;;;;;;;3.05;2.80;;;;;;;5.10;62.27;100174.25;5003414;28;97769;-72
2024/01/15 07:25:02;;;;;;;3.53;2.90;;;;;;;5.08;62.35;100176.16;4993809;28;97401;-71
2024/01/15 07:27:29;;;;;;;4.07;2.65;;;;;;;5.08;62.44;100170.84;4996440;28;97612;-72
2024/01/15 07:29:55;;;;;;;3.05;2.75;;;;;;;5.09;62.38;100161.91;4986788;27;98250;-72
2024/01/15 07:32:27;;;;;;;3.83;2.78;;;;;;;5.09;62.52;100153.94;4984612;28;97622;-72
2024/01/15 07:34:53;;;;;;;3.65;2.50;;;;;;;5.12;62.41;100158.22;4993667;28;97244;-72
2024/01/15 07:37:20;;;;;;;3.88;2.85;;;;;;;5.13;62.45;100162.59;4989273;28;97142;-71
2024/01/15 07:39:47;;;;;;;3.53;2.70;;;;;;;5.13;62.36;100161.72;4987146;28;97659;-71
2024/01/15 07:42:13;;;;;;;4.03;3.15;;;;;;;5.14;62.30;100179.41;4988609;28;100139;-71
2024/01/15 07:44:40;;;;;;;4.28;3.17;;;;;;;5.14;62.50;100201.56;4989740;28;97594;-71
2024/01/15 07:47:08;;;;;;;3.97;2.95;;;;;;;5.13;62.40;100206.97;4987502;28;97536;-71
2024/01/15 07:49:35;;;;;;;3.65;2.97;;;;;;;5.09;62.46;100206.28;4990296;28;97653;-71
2024/01/15 07:52:02;;;;;;;2.97;2.35;;;;;;;5.05;62.45;100192.31;4988652;28;98454;-71
2024/01/15 07:54:29;;;;;;;5.30;2.22;;;;;;;5.01;62.46;100197.91;4985659;28;97395;-71
2024/01/15 07:57:00;;;;;;;6.60;1.90;;;;;;;4.96;62.46;100192.84;4991536;28;97511;-71
2024/01/15 07:59:27;;;;;;;2.40;2.08;;;;;;;4.95;62.52;100195.59;4993196;28;97610;-72
2024/01/15 08:01:54;;;;;;;3.40;2.08;;;;;;;4.93;62.57;100193.03;4987530;28;100164;-71
2024/01/15 08:04:21;;;;;;;3.03;2.22;;;;;;;4.93;62.29;100185.03;4987050;28;98135;-71
2024/01/15 08:06:48;;;;;;;3.50;2.10;;;;;;;4.93;62.56;100186.84;4982443;28;98076;-71
2024/01/15 08:09:15;;;;;;;4.22;3.05;;;;;;;4.95;62.82;100193.81;4987866;28;98102;-72
2024/01/15 08:11:43;;;;;;;4.47;2.05;;;;;;;4.94;62.62;100192.09;4987941;28;99528;-71
2024/01/15 08:14:10;;;;;;;3.08;2.22;;;;;;;4.95;62.47;100196.47;4982131;28;98388;-71
2024/01/15 08:16:37;;;;;;;5.35;2.60;;;;;;;4.95;62.50;100204.44;4994658;28;98931;-71
2024/01/15 08:19:05;;;;;;;3.67;2.30;;;;;;;4.95;62.60;100203.59;4983036;28;97911;-71
2024/01/15 08:21:32;;;;;;;6.68;2.70;;;;;;;4.95;62.60;100196.47;4946125;28;1165323;-71
2024/01/15 08:24:00;;;;;;;7.07;3.00;;;;;;;4.96;62.67;100195.50;4988128;28;97403;-71
2024/01/15 08:26:30;;;;;;;4.18;2.67;;;;;;;4.96;62.54;100182.22;4990378;28;98371;-70
2024/01/15 08:28:57;;;;;;;4.10;2.67;;;;;;;4.96;62.61;100182.22;4989531;28;97528;-71
2024/01/15 08:31:24;;;;;;;6.43;2.80;;;;;;;4.97;62.58;100178.59;4992797;28;99356;-71
2024/01/15 08:33:51;;;;;;;6.75;3.53;;;;;;;4.97;62.61;100178.59;4992645;28;100005;-72
2024/01/15 08:36:18;;;;;;;3.83;2.70;;;;;;;4.99;62.80;100182.03;4983429;28;97921;-71
2024/01/15 08:38:45;;;;;;;6.28;3.47;;;;;;;5.02;62.68;100187.16;4984954;28;97672;-71
2024/01/15 08:41:13;;;;;;;10.38;3.78;;;;;;;5.05;62.72;100180.81;4981928;28;98111;-71
2024/01/15 08:43:40;;;;;;;7.15;3.30;;;;;;;5.06;62.60;100178.06;4992478;28;99376;-71
2024/01/15 08:46:07;;;;;;;5.38;3.47;;;;;;;5.10;62.77;100179.59;4990965;28;98253;-71
2024/01/15 08:48:34;;;;;;;8.20;3.60;;;;;;;5.13;62.72;100193.66;4991416;28;98488;-71
2024/01/15 08:51:01;;;;;;;7.45;3.40;;;;;;;5.13;62.66;100191.84;4989586;28;101143;-71
2024/01/15 08:53:27;;;;;;;5.00;3.40;;;;;;;5.14;62.77;100190.06;4979537;28;99137;-71
2024/01/15 08:55:54;;;;;;;6.90;3.78;;;;;;;5.14;62.75;100204.22;4978654;28;98121;-71
2024/01/15 08:58:23;;;;;;;6.22;3.70;;;;;;;5.15;62.72;100199.75;4984060;28;98305;-71
2024/01/15 09:00:50;;;;;;;5.75;3.55;;;;;;;5.15;62.79;100207.75;4985843;28;97976;-71
2024/01/15 09:03:18;;;;;;;5.75;3.63;;;;;;;5.15;62.72;100205.06;4986333;28;98936;-71
2024/01/15 09:05:45;;;;;;;4.10;3.50;;;;;;;5.17;62.64;100211.16;4977314;28;98706;-70
2024/01/15 09:08:11;;;;;;;6.00;3.50;;;;;;;5.17;62.79;100212.03;4987161;28;97276;-71
2024/01/15 09:10:38;;;;;;;8.10;2.80;;;;;;;5.18;62.73;100213.75;4985403;28;100374;-70
2024/01/15 09:13:05;;;;;;;6.80;2.97;;;;;;;5.15;62.66;100221.91;4982426;28;98873;-71
2024/01/15 09:15:32;;;;;;;6.43;2.60;;;;;;;5.14;62.62;100222.84;4989486;28;98612;-71
2024/01/15 09:17:59;;;;;;;3.60;2.00;;;;;;;5.15;62.76;100221.06;4988473;28;98379;-71
2024/01/15 09:20:27;;;;;;;9.05;2.15;;;;;;;5.14;62.70;100209.53;4983830;28;97638;-71
2024/01/15 09:22:54;;;;;;;5.85;1.85;;;;;;;5.14;62.71;100214.00;4985454;28;98137;-71
2024/01/15 09:25:20;;;;;;;3.88;2.25;;;;;;;5.13;62.81;100213.16;4984993;28;97356;-71
2024/01/15 09:27:48;;;;;;;9.15;2.13;;;;;;;5.13;62.85;100217.63;4979354;28;97641;-70
2024/01/15 09:30:15;;;;;;;4.35;1.63;;;;;;;5.16;62.76;100217.44;4982327;28;99429;-71
2024/01/15 09:32:42;;;;;;;7.05;1.65;;;;;;;5.20;62.83;100219.88;4986861;28;101486;-71
2024/01/15 09:35:09;;;;;;;7.85;1.50;;;;;;;5.24;62.83;100228.53;4985143;28;97683;-71
2024/01/15 09:37:37;;;;;;;3.25;1.30;;;;;;;5.24;62.85;100242.69;4983108;28;98478;-70
2024/01/15 09:40:16;;;;;;;3.58;1.42;;;;;;;5.22;62.91;100244.59;4987294;28;98004;-71
2024/01/15 09:42:44;;;;;;;4.10;1.42;;;;;;;5.20;62.89;100219.88;4989755;28;98557;-70
2024/01/15 09:45:12;;;;;;;6.65;1.35;;;;;;;5.18;62.75;100212.88;4987418;28;98658;-71
2024/01/15 09:47:41;;;;;;;3.33;1.45;;;;;;;5.15;62.38;100208.59;4968206;28;97797;-71
2024/01/15 09:50:13;;;;;;;3.80;1.00;;;;;;;5.15;62.77;100210.41;4978488;28;98161;-69
2024/01/15 09:52:40;;;;;;;2.25;1.23;;;;;;;5.13;62.82;100213.16;4985767;28;97431;-70
2024/01/15 09:55:09;;;;;;;3.13;1.02;;;;;;;5.13;62.66;100214.97;4982560;28;97668;-70
2024/01/15 09:57:36;;;;;;;4.80;1.33;;;;;;;5.12;62.47;100211.44;4975186;28;98798;-70
2024/01/15 10:00:06;;;;;;;5.13;1.38;;;;;;;5.14;62.69;100216.66;4984257;28;98287;-70
2024/01/15 10:02:35;;;;;;;4.20;1.40;;;;;;;5.14;62.76;100214.88;4993539;27;97960;-70
2024/01/15 10:05:02;;;;;;;4.70;1.60;;;;;;;5.15;62.68;100218.38;4983019;28;97103;-70
2024/01/15 10:07:29;;;;;;;4.63;1.60;;;;;;;5.18;62.83;100229.72;4981933;28;98633;-70
2024/01/15 10:09:56;;;;;;;4.22;1.60;;;;;;;5.20;63.04;100227.84;4984097;28;97980;-70
2024/01/15 10:12:24;;;;;;;5.15;2.10;;;;;;;5.24;62.87;100223.19;4985936;28;97358;-70
2024/01/15 10:14:51;;;;;;;9.63;2.10;;;;;;;5.28;62.87;100224.72;4974833;28;98595;-70
2024/01/15 10:17:18;;;;;;;6.88;1.90;;;;;;;5.29;62.93;100224.66;4985764;28;98400;-70
2024/01/15 10:19:46;;;;;;;6.63;2.22;;;;;;;5.30;62.84;100220.19;4986268;28;99184;-70
2024/01/15 10:22:17;;;;;;;3.85;2.03;;;;;;;5.30;62.69;100221.03;4971328;28;97733;-70
2024/01/15 10:24:46;;;;;;;6.63;2.63;;;;;;;5.29;62.78;100221.13;4983085;28;97494;-69
2024/01/15 10:27:16;;;;;;;6.13;2.63;;;;;;;5.26;62.71;100211.50;4986036;28;97727;-69
2024/01/15 10:29:43;;;;;;;7.28;2.63;;;;;;;5.25;62.79;100217.78;4981985;28;99816;-69
2024/01/15 10:32:12;;;;;;;5.05;3.47;;;;;;;5.24;62.42;100216.06;4987153;28;97495;-69
2024/01/15 10:34:42;;;;;;;4.88;3.97;;;;;;;5.24;62.81;100216.06;4985833;28;97298;-69
2024/01/15 10:37:10;;;;;;;9.82;4.32;;;;;;;5.28;62.79;100216.75;4990474;28;98456;-69
2024/01/15 10:39:37;;;;;;;6.97;4.38;;;;;;;5.35;62.97;100218.94;4987458;28;97714;-69
2024/01/15 10:42:06;;;;;;;7.28;3.78;;;;;;;5.42;63.09;100212.31;4981789;28;97001;-69
2024/01/15 10:44:34;;;;;;;5.65;4.10;;;;;;;5.50;63.04;100214.50;5002379;28;98086;-69
2024/01/15 10:47:01;;;;;;;6.95;4.00;;;;;;;5.57;62.98;100215.00;4982341;28;98545;-69
2024/01/15 10:49:30;;;;;;;8.07;4.13;;;;;;;5.66;63.11;100215.31;4985103;28;98490;-69
2024/01/15 10:52:03;;;;;;;7.30;4.32;;;;;;;5.71;63.15;100236.34;4989533;28;97461;-70
2024/01/15 10:54:30;;;;;;;8.25;4.75;;;;;;;5.73;63.04;100237.09;4974937;28;99498;-69
2024/01/15 10:56:57;;;;;;;8.45;4.00;;;;;;;5.72;62.91;100232.72;4975596;28;97991;-70
2024/01/15 10:59:24;;;;;;;6.03;3.40;;;;;;;5.70;63.04;100224.81;4978935;28;98013;-69
2024/01/15 11:01:53;;;;;;;5.95;3.00;;;;;;;5.70;62.84;100226.63;4983045;28;97215;-69
2024/01/15 11:04:22;;;;;;;8.70;3.72;;;;;;;5.70;62.87;100226.63;4984238;28;97566;-69
2024/01/15 11:06:53;;;;;;;8.32;3.28;;;;;;;5.67;62.70;100216.16;4983761;28;99154;-69
2024/01/15 11:09:20;;;;;;;7.13;2.92;;;;;;;5.68;62.74;100220.53;4983500;28;97498;-69
2024/01/15 11:11:49;;;;;;;6.72;3.67;;;;;;;5.68;62.89;100213.41;4983492;28;98223;-69
2024/01/15 11:14:44;;;;;;;6.10;2.83;;;;;;;5.70;62.78;100219.50;4985433;28;97329;-69
2024/01/15 11:17:15;;;;;;;9.68;3.35;;;;;;;5.73;62.78;100221.97;4986058;28;99042;-69
2024/01/15 11:19:47;;;;;;;6.07;2.75;;;;;;;5.77;62.83;100217.31;4987876;28;97608;-69
2024/01/15 11:22:29;;;;;;;6.07;2.17;;;;;;;5.83;62.79;100226.72;4983569;28;97278;-69
2024/01/15 11:24:57;;;;;;;4.53;2.10;;;;;;;5.87;62.84;100233.59;4985059;28;98487;-70
2024/01/15 11:27:47;;;;;;;7.63;2.45;;;;;;;5.86;62.85;100231.88;4984355;28;97408;-69
2024/01/15 11:30:14;;;;;;;6.03;1.63;;;;;;;5.89;62.75;100234.34;4987225;28;97594;-69
2024/01/15 11:32:42;;;;;;;6.68;1.85;;;;;;;5.88;62.88;100245.97;4987175;28;97589;-70